sensor_id;sensor_type;location;lat;lon;timestamp;temperature;humidity
17687;DHT22;8962;52.538;13.266;2023-03-14T00:01:13;12.60;99.90
17687;DHT22;8962;52.538;13.266;2023-03-14T00:03:42;12.60;99.90
17687;DHT22;8962;52.538;13.266;2023-03-14T00:06:11;12.60;99.90
17687;DHT22;8962;52.538;13.266;2023-03-14T00:08:39;12.50;99.90
17687;DHT22;8962;52.538;13.266;2023-03-14T00:11:07;12.50;99.90
17687;DHT22;8962;52.538;13.266;2023-03-14T00:13:35;12.40;99.90
17687;DHT22;8962;52.538;13.266;2023-03-14T00:16:04;12.50;99.90
17687;DHT22;8962;52.538;13.266;2023-03-14T00:18:32;12.40;99.90
17687;DHT22;8962;52.538;13.266;2023-03-14T00:21:01;12.40;99.90
17687;DHT22;8962;52.538;13.266;2023-03-14T00:23:31;12.40;99.90
17687;DHT22;8962;52.538;13.266;2023-03-14T00:25:59;12.30;99.90
17687;DHT22;8962;52.538;13.266;2023-03-14T00:28:27;12.30;99.90
17687;DHT22;8962;52.538;13.266;2023-03-14T00:30:55;12.30;99.90
17687;DHT22;8962;52.538;13.266;2023-03-14T00:33:23;12.20;99.90
17687;DHT22;8962;52.538;13.266;2023-03-14T00:35:54;12.20;99.90
17687;DHT22;8962;52.538;13.266;2023-03-14T00:38:23;12.10;99.90
17687;DHT22;8962;52.538;13.266;2023-03-14T00:40:51;12.10;99.90
17687;DHT22;8962;52.538;13.266;2023-03-14T00:43:20;12.10;99.90
17687;DHT22;8962;52.538;13.266;2023-03-14T00:45:49;12.10;99.90
17687;DHT22;8962;52.538;13.266;2023-03-14T00:48:24;12.00;99.90
17687;DHT22;8962;52.538;13.266;2023-03-14T00:50:51;12.00;99.90
17687;DHT22;8962;52.538;13.266;2023-03-14T00:53:19;12.00;99.90
17687;DHT22;8962;52.538;13.266;2023-03-14T00:55:47;12.00;99.90
17687;DHT22;8962;52.538;13.266;2023-03-14T00:58:16;11.90;99.90
17687;DHT22;8962;52.538;13.266;2023-03-14T01:00:45;11.90;99.90
17687;DHT22;8962;52.538;13.266;2023-03-14T01:03:13;11.90;99.90
17687;DHT22;8962;52.538;13.266;2023-03-14T01:05:42;11.90;99.90
17687;DHT22;8962;52.538;13.266;2023-03-14T01:08:09;11.90;99.90
17687;DHT22;8962;52.538;13.266;2023-03-14T01:10:38;11.80;99.90
17687;DHT22;8962;52.538;13.266;2023-03-14T01:13:08;11.80;99.90
17687;DHT22;8962;52.538;13.266;2023-03-14T01:15:37;11.70;99.90
17687;DHT22;8962;52.538;13.266;2023-03-14T01:18:05;11.80;99.90
17687;DHT22;8962;52.538;13.266;2023-03-14T01:20:32;11.70;99.90
17687;DHT22;8962;52.538;13.266;2023-03-14T01:23:01;11.70;99.90
17687;DHT22;8962;52.538;13.266;2023-03-14T01:25:28;11.70;99.90
17687;DHT22;8962;52.538;13.266;2023-03-14T01:27:56;11.70;99.90
17687;DHT22;8962;52.538;13.266;2023-03-14T01:30:26;11.60;99.90
17687;DHT22;8962;52.538;13.266;2023-03-14T01:32:53;11.70;99.90
17687;DHT22;8962;52.538;13.266;2023-03-14T01:35:22;11.70;99.90
17687;DHT22;8962;52.538;13.266;2023-03-14T01:37:50;11.70;99.90
17687;DHT22;8962;52.538;13.266;2023-03-14T01:40:21;11.70;99.90
17687;DHT22;8962;52.538;13.266;2023-03-14T01:42:55;11.80;99.90
17687;DHT22;8962;52.538;13.266;2023-03-14T01:48:49;11.80;99.90
17687;DHT22;8962;52.538;13.266;2023-03-14T01:51:25;11.80;99.90
17687;DHT22;8962;52.538;13.266;2023-03-14T01:54:00;11.80;99.90
17687;DHT22;8962;52.538;13.266;2023-03-14T01:56:30;11.80;99.90
17687;DHT22;8962;52.538;13.266;2023-03-14T01:59:01;11.80;99.90
17687;DHT22;8962;52.538;13.266;2023-03-14T02:01:32;11.80;99.90
17687;DHT22;8962;52.538;13.266;2023-03-14T02:04:05;11.70;99.90
17687;DHT22;8962;52.538;13.266;2023-03-14T02:06:42;11.70;99.90
17687;DHT22;8962;52.538;13.266;2023-03-14T02:09:13;11.80;99.90
17687;DHT22;8962;52.538;13.266;2023-03-14T02:11:41;11.70;99.90
17687;DHT22;8962;52.538;13.266;2023-03-14T02:14:30;11.70;99.90
17687;DHT22;8962;52.538;13.266;2023-03-14T02:17:17;11.70;99.90
17687;DHT22;8962;52.538;13.266;2023-03-14T02:20:27;11.70;99.90
17687;DHT22;8962;52.538;13.266;2023-03-14T02:22:57;11.70;99.90
17687;DHT22;8962;52.538;13.266;2023-03-14T02:25:35;11.70;99.90
17687;DHT22;8962;52.538;13.266;2023-03-14T02:28:06;11.70;99.90
17687;DHT22;8962;52.538;13.266;2023-03-14T02:30:34;11.80;99.90
17687;DHT22;8962;52.538;13.266;2023-03-14T02:33:06;11.80;99.90
17687;DHT22;8962;52.538;13.266;2023-03-14T02:35:37;11.80;99.90
17687;DHT22;8962;52.538;13.266;2023-03-14T02:38:13;11.70;99.90
17687;DHT22;8962;52.538;13.266;2023-03-14T02:40:45;11.80;99.90
17687;DHT22;8962;52.538;13.266;2023-03-14T02:43:14;11.80;99.90
17687;DHT22;8962;52.538;13.266;2023-03-14T02:45:49;11.80;99.90
17687;DHT22;8962;52.538;13.266;2023-03-14T02:48:22;11.80;99.90
17687;DHT22;8962;52.538;13.266;2023-03-14T02:50:53;11.80;99.90
17687;DHT22;8962;52.538;13.266;2023-03-14T02:53:24;11.70;99.90
17687;DHT22;8962;52.538;13.266;2023-03-14T02:55:55;11.70;99.90
17687;DHT22;8962;52.538;13.266;2023-03-14T02:58:25;11.60;99.90
17687;DHT22;8962;52.538;13.266;2023-03-14T03:01:01;11.60;99.90
17687;DHT22;8962;52.538;13.266;2023-03-14T03:03:28;11.50;99.90
17687;DHT22;8962;52.538;13.266;2023-03-14T03:05:57;11.50;99.90
17687;DHT22;8962;52.538;13.266;2023-03-14T03:08:26;11.50;99.90
17687;DHT22;8962;52.538;13.266;2023-03-14T03:10:56;11.40;99.90
17687;DHT22;8962;52.538;13.266;2023-03-14T03:13:25;11.40;99.90
17687;DHT22;8962;52.538;13.266;2023-03-14T03:15:55;11.40;99.90
17687;DHT22;8962;52.538;13.266;2023-03-14T03:18:24;11.40;99.90
17687;DHT22;8962;52.538;13.266;2023-03-14T03:20:52;11.40;99.90
17687;DHT22;8962;52.538;13.266;2023-03-14T03:23:19;11.40;99.90
17687;DHT22;8962;52.538;13.266;2023-03-14T03:25:50;11.40;99.90
17687;DHT22;8962;52.538;13.266;2023-03-14T03:28:18;11.40;99.90
17687;DHT22;8962;52.538;13.266;2023-03-14T03:30:47;11.40;99.90
17687;DHT22;8962;52.538;13.266;2023-03-14T03:33:14;11.40;99.90
17687;DHT22;8962;52.538;13.266;2023-03-14T03:35:45;11.40;99.90
17687;DHT22;8962;52.538;13.266;2023-03-14T03:38:17;11.40;99.90
17687;DHT22;8962;52.538;13.266;2023-03-14T03:40:48;11.40;99.90
17687;DHT22;8962;52.538;13.266;2023-03-14T03:43:18;11.40;99.90
17687;DHT22;8962;52.538;13.266;2023-03-14T03:45:49;11.50;99.90
17687;DHT22;8962;52.538;13.266;2023-03-14T03:48:16;11.50;99.90
17687;DHT22;8962;52.538;13.266;2023-03-14T03:50:47;11.40;99.90
17687;DHT22;8962;52.538;13.266;2023-03-14T03:53:18;11.40;99.90
17687;DHT22;8962;52.538;13.266;2023-03-14T03:55:49;11.40;99.90
17687;DHT22;8962;52.538;13.266;2023-03-14T03:58:16;11.40;99.90
17687;DHT22;8962;52.538;13.266;2023-03-14T04:00:45;11.40;99.90
17687;DHT22;8962;52.538;13.266;2023-03-14T04:03:14;11.40;99.90
17687;DHT22;8962;52.538;13.266;2023-03-14T04:05:41;11.40;99.90
17687;DHT22;8962;52.538;13.266;2023-03-14T04:08:09;11.30;99.90
17687;DHT22;8962;52.538;13.266;2023-03-14T04:10:37;11.30;99.90
17687;DHT22;8962;52.538;13.266;2023-03-14T04:13:15;11.30;99.90
17687;DHT22;8962;52.538;13.266;2023-03-14T04:15:50;11.30;99.90
17687;DHT22;8962;52.538;13.266;2023-03-14T04:18:24;11.40;99.90
17687;DHT22;8962;52.538;13.266;2023-03-14T04:20:54;11.30;99.90
17687;DHT22;8962;52.538;13.266;2023-03-14T04:23:31;11.30;99.90
17687;DHT22;8962;52.538;13.266;2023-03-14T04:25:59;11.30;99.90
17687;DHT22;8962;52.538;13.266;2023-03-14T04:28:27;11.30;99.90
17687;DHT22;8962;52.538;13.266;2023-03-14T04:30:55;11.40;99.90
17687;DHT22;8962;52.538;13.266;2023-03-14T04:33:26;11.40;99.90
17687;DHT22;8962;52.538;13.266;2023-03-14T04:35:58;11.30;99.90
17687;DHT22;8962;52.538;13.266;2023-03-14T04:38:26;11.30;99.90
17687;DHT22;8962;52.538;13.266;2023-03-14T04:40:53;11.40;99.90
17687;DHT22;8962;52.538;13.266;2023-03-14T04:43:25;11.30;99.90
17687;DHT22;8962;52.538;13.266;2023-03-14T04:45:59;11.30;99.90
17687;DHT22;8962;52.538;13.266;2023-03-14T04:48:28;11.30;99.90
17687;DHT22;8962;52.538;13.266;2023-03-14T04:50:57;11.30;99.90
17687;DHT22;8962;52.538;13.266;2023-03-14T04:53:25;11.30;99.90
17687;DHT22;8962;52.538;13.266;2023-03-14T04:55:55;11.30;99.90
17687;DHT22;8962;52.538;13.266;2023-03-14T04:58:28;11.20;99.90
17687;DHT22;8962;52.538;13.266;2023-03-14T05:01:01;11.20;99.90
17687;DHT22;8962;52.538;13.266;2023-03-14T05:03:46;11.30;99.90
17687;DHT22;8962;52.538;13.266;2023-03-14T05:06:19;11.30;99.90
17687;DHT22;8962;52.538;13.266;2023-03-14T05:08:55;11.30;99.90
17687;DHT22;8962;52.538;13.266;2023-03-14T05:11:46;11.30;99.90
17687;DHT22;8962;52.538;13.266;2023-03-14T05:14:32;11.30;99.90
17687;DHT22;8962;52.538;13.266;2023-03-14T05:17:26;11.30;99.90
17687;DHT22;8962;52.538;13.266;2023-03-14T05:20:15;11.30;99.90
17687;DHT22;8962;52.538;13.266;2023-03-14T05:22:59;11.40;99.90
17687;DHT22;8962;52.538;13.266;2023-03-14T05:25:45;11.40;99.90
17687;DHT22;8962;52.538;13.266;2023-03-14T05:28:49;11.30;99.90
17687;DHT22;8962;52.538;13.266;2023-03-14T05:31:28;11.30;99.90
17687;DHT22;8962;52.538;13.266;2023-03-14T05:34:16;11.40;99.90
17687;DHT22;8962;52.538;13.266;2023-03-14T05:37:05;11.40;99.90
17687;DHT22;8962;52.538;13.266;2023-03-14T05:39:49;11.40;99.90
17687;DHT22;8962;52.538;13.266;2023-03-14T05:42:39;11.40;99.90
17687;DHT22;8962;52.538;13.266;2023-03-14T05:45:29;11.40;99.90
17687;DHT22;8962;52.538;13.266;2023-03-14T05:48:06;11.40;99.90
17687;DHT22;8962;52.538;13.266;2023-03-14T05:50:54;11.40;99.90
17687;DHT22;8962;52.538;13.266;2023-03-14T05:53:46;11.40;99.90
17687;DHT22;8962;52.538;13.266;2023-03-14T05:56:32;11.40;99.90
17687;DHT22;8962;52.538;13.266;2023-03-14T05:59:12;11.40;99.90
17687;DHT22;8962;52.538;13.266;2023-03-14T06:02:00;11.40;99.90
17687;DHT22;8962;52.538;13.266;2023-03-14T06:04:37;11.40;99.90
17687;DHT22;8962;52.538;13.266;2023-03-14T06:07:08;11.40;99.90
17687;DHT22;8962;52.538;13.266;2023-03-14T06:09:38;11.40;99.90
17687;DHT22;8962;52.538;13.266;2023-03-14T06:12:06;11.40;99.90
17687;DHT22;8962;52.538;13.266;2023-03-14T06:14:39;11.50;99.90
17687;DHT22;8962;52.538;13.266;2023-03-14T06:17:06;11.50;99.90
17687;DHT22;8962;52.538;13.266;2023-03-14T06:19:42;11.50;99.90
17687;DHT22;8962;52.538;13.266;2023-03-14T06:22:12;11.60;99.90
17687;DHT22;8962;52.538;13.266;2023-03-14T06:24:43;11.60;99.90
17687;DHT22;8962;52.538;13.266;2023-03-14T06:27:11;11.70;99.90
17687;DHT22;8962;52.538;13.266;2023-03-14T06:29:40;11.70;99.90
17687;DHT22;8962;52.538;13.266;2023-03-14T06:32:08;11.80;99.90
17687;DHT22;8962;52.538;13.266;2023-03-14T06:34:37;11.80;99.90
17687;DHT22;8962;52.538;13.266;2023-03-14T06:37:07;11.80;99.90
17687;DHT22;8962;52.538;13.266;2023-03-14T06:39:34;11.80;99.90
17687;DHT22;8962;52.538;13.266;2023-03-14T06:42:12;11.90;99.90
17687;DHT22;8962;52.538;13.266;2023-03-14T06:44:41;11.90;99.90
17687;DHT22;8962;52.538;13.266;2023-03-14T06:47:08;11.90;99.90
17687;DHT22;8962;52.538;13.266;2023-03-14T06:49:39;12.00;99.90
17687;DHT22;8962;52.538;13.266;2023-03-14T06:52:07;12.10;99.90
17687;DHT22;8962;52.538;13.266;2023-03-14T06:54:35;12.10;99.90
17687;DHT22;8962;52.538;13.266;2023-03-14T06:57:05;12.20;99.90
17687;DHT22;8962;52.538;13.266;2023-03-14T06:59:33;12.20;99.90
17687;DHT22;8962;52.538;13.266;2023-03-14T07:02:01;12.40;99.90
17687;DHT22;8962;52.538;13.266;2023-03-14T07:04:28;12.40;99.90
17687;DHT22;8962;52.538;13.266;2023-03-14T07:06:56;12.40;99.90
17687;DHT22;8962;52.538;13.266;2023-03-14T07:09:24;12.40;99.90
17687;DHT22;8962;52.538;13.266;2023-03-14T07:11:57;12.40;99.90
17687;DHT22;8962;52.538;13.266;2023-03-14T07:14:24;12.30;99.90
17687;DHT22;8962;52.538;13.266;2023-03-14T07:16:54;12.30;99.90
17687;DHT22;8962;52.538;13.266;2023-03-14T07:19:21;12.20;99.90
17687;DHT22;8962;52.538;13.266;2023-03-14T07:21:49;12.10;99.90
17687;DHT22;8962;52.538;13.266;2023-03-14T07:24:22;12.20;99.90
17687;DHT22;8962;52.538;13.266;2023-03-14T07:26:51;12.10;99.90
17687;DHT22;8962;52.538;13.266;2023-03-14T07:29:18;12.10;99.90
17687;DHT22;8962;52.538;13.266;2023-03-14T07:31:45;12.10;99.90
17687;DHT22;8962;52.538;13.266;2023-03-14T07:34:20;12.10;99.90
17687;DHT22;8962;52.538;13.266;2023-03-14T07:36:50;12.10;99.90
17687;DHT22;8962;52.538;13.266;2023-03-14T07:39:17;12.10;99.90
17687;DHT22;8962;52.538;13.266;2023-03-14T07:41:59;12.10;99.90
17687;DHT22;8962;52.538;13.266;2023-03-14T07:44:44;12.10;99.90
17687;DHT22;8962;52.538;13.266;2023-03-14T07:47:13;12.20;99.90
17687;DHT22;8962;52.538;13.266;2023-03-14T07:49:41;12.20;99.90
17687;DHT22;8962;52.538;13.266;2023-03-14T07:52:09;12.30;99.90
17687;DHT22;8962;52.538;13.266;2023-03-14T07:54:42;12.40;99.90
17687;DHT22;8962;52.538;13.266;2023-03-14T07:57:09;12.70;99.90
17687;DHT22;8962;52.538;13.266;2023-03-14T07:59:39;12.70;99.90
17687;DHT22;8962;52.538;13.266;2023-03-14T08:02:09;12.70;99.90
17687;DHT22;8962;52.538;13.266;2023-03-14T08:04:40;12.70;99.90
17687;DHT22;8962;52.538;13.266;2023-03-14T08:07:08;12.90;99.90
17687;DHT22;8962;52.538;13.266;2023-03-14T08:09:36;13.10;99.90
17687;DHT22;8962;52.538;13.266;2023-03-14T08:12:03;13.20;99.90
17687;DHT22;8962;52.538;13.266;2023-03-14T08:14:31;13.30;99.90
17687;DHT22;8962;52.538;13.266;2023-03-14T08:16:58;13.30;99.90
17687;DHT22;8962;52.538;13.266;2023-03-14T08:19:28;13.30;99.90
17687;DHT22;8962;52.538;13.266;2023-03-14T08:21:56;13.40;99.90
17687;DHT22;8962;52.538;13.266;2023-03-14T08:24:24;13.40;99.90
17687;DHT22;8962;52.538;13.266;2023-03-14T08:26:51;13.30;99.90
17687;DHT22;8962;52.538;13.266;2023-03-14T08:29:19;13.20;99.90
17687;DHT22;8962;52.538;13.266;2023-03-14T08:31:46;13.20;99.90
17687;DHT22;8962;52.538;13.266;2023-03-14T08:34:14;13.20;99.90
17687;DHT22;8962;52.538;13.266;2023-03-14T08:36:41;13.20;99.90
17687;DHT22;8962;52.538;13.266;2023-03-14T08:39:10;13.10;99.90
17687;DHT22;8962;52.538;13.266;2023-03-14T08:41:37;13.10;99.90
17687;DHT22;8962;52.538;13.266;2023-03-14T08:44:08;13.10;99.90
17687;DHT22;8962;52.538;13.266;2023-03-14T08:46:37;13.00;99.90
17687;DHT22;8962;52.538;13.266;2023-03-14T08:49:05;12.90;99.90
17687;DHT22;8962;52.538;13.266;2023-03-14T08:51:33;12.90;99.90
17687;DHT22;8962;52.538;13.266;2023-03-14T08:54:00;12.90;99.90
17687;DHT22;8962;52.538;13.266;2023-03-14T08:56:30;13.00;99.90
17687;DHT22;8962;52.538;13.266;2023-03-14T08:58:57;12.90;99.90
17687;DHT22;8962;52.538;13.266;2023-03-14T09:01:24;13.00;99.90
17687;DHT22;8962;52.538;13.266;2023-03-14T09:03:52;13.20;99.90
17687;DHT22;8962;52.538;13.266;2023-03-14T09:06:20;13.30;99.90
17687;DHT22;8962;52.538;13.266;2023-03-14T09:08:48;13.50;99.90
17687;DHT22;8962;52.538;13.266;2023-03-14T09:11:15;13.60;99.90
17687;DHT22;8962;52.538;13.266;2023-03-14T09:13:45;13.80;99.90
17687;DHT22;8962;52.538;13.266;2023-03-14T09:16:14;13.80;99.90
17687;DHT22;8962;52.538;13.266;2023-03-14T09:18:42;13.80;99.90
17687;DHT22;8962;52.538;13.266;2023-03-14T09:21:09;13.80;99.90
17687;DHT22;8962;52.538;13.266;2023-03-14T09:23:36;13.80;99.90
17687;DHT22;8962;52.538;13.266;2023-03-14T09:26:04;14.00;99.90
17687;DHT22;8962;52.538;13.266;2023-03-14T09:28:31;14.10;99.90
17687;DHT22;8962;52.538;13.266;2023-03-14T09:31:06;14.30;99.90
17687;DHT22;8962;52.538;13.266;2023-03-14T09:33:34;14.40;99.90
17687;DHT22;8962;52.538;13.266;2023-03-14T09:36:01;14.50;99.90
17687;DHT22;8962;52.538;13.266;2023-03-14T09:38:29;14.60;99.90
17687;DHT22;8962;52.538;13.266;2023-03-14T09:40:59;14.80;99.90
17687;DHT22;8962;52.538;13.266;2023-03-14T09:43:30;15.00;99.90
17687;DHT22;8962;52.538;13.266;2023-03-14T09:45:59;14.90;99.90
17687;DHT22;8962;52.538;13.266;2023-03-14T09:48:32;14.70;99.90
17687;DHT22;8962;52.538;13.266;2023-03-14T09:51:04;14.50;99.90
17687;DHT22;8962;52.538;13.266;2023-03-14T09:53:37;14.50;99.90
17687;DHT22;8962;52.538;13.266;2023-03-14T09:56:11;14.50;99.90
17687;DHT22;8962;52.538;13.266;2023-03-14T09:58:43;14.50;99.90
17687;DHT22;8962;52.538;13.266;2023-03-14T10:01:15;14.40;99.90
17687;DHT22;8962;52.538;13.266;2023-03-14T10:03:47;14.30;99.90
17687;DHT22;8962;52.538;13.266;2023-03-14T10:06:16;14.20;99.90
17687;DHT22;8962;52.538;13.266;2023-03-14T10:08:44;14.20;99.90
17687;DHT22;8962;52.538;13.266;2023-03-14T10:11:14;14.20;99.90
17687;DHT22;8962;52.538;13.266;2023-03-14T10:14:04;14.20;99.90
17687;DHT22;8962;52.538;13.266;2023-03-14T10:16:35;14.40;99.90
17687;DHT22;8962;52.538;13.266;2023-03-14T10:19:09;14.40;99.90
17687;DHT22;8962;52.538;13.266;2023-03-14T10:21:39;14.50;99.90
17687;DHT22;8962;52.538;13.266;2023-03-14T10:24:16;14.40;99.90
17687;DHT22;8962;52.538;13.266;2023-03-14T10:26:48;14.30;99.90
17687;DHT22;8962;52.538;13.266;2023-03-14T10:29:16;14.20;99.90
17687;DHT22;8962;52.538;13.266;2023-03-14T10:31:48;14.20;99.90
17687;DHT22;8962;52.538;13.266;2023-03-14T10:34:23;14.10;99.90
17687;DHT22;8962;52.538;13.266;2023-03-14T10:36:55;14.10;99.90
17687;DHT22;8962;52.538;13.266;2023-03-14T10:39:30;14.00;99.90
17687;DHT22;8962;52.538;13.266;2023-03-14T10:42:05;14.00;99.90
17687;DHT22;8962;52.538;13.266;2023-03-14T10:44:34;14.20;99.90
17687;DHT22;8962;52.538;13.266;2023-03-14T10:47:03;14.20;99.90
17687;DHT22;8962;52.538;13.266;2023-03-14T10:49:35;14.10;99.90
17687;DHT22;8962;52.538;13.266;2023-03-14T10:52:13;14.20;99.90
17687;DHT22;8962;52.538;13.266;2023-03-14T10:54:41;14.20;99.90
17687;DHT22;8962;52.538;13.266;2023-03-14T10:57:13;14.20;99.90
17687;DHT22;8962;52.538;13.266;2023-03-14T10:59:42;14.20;99.90
17687;DHT22;8962;52.538;13.266;2023-03-14T11:02:32;14.30;99.90
17687;DHT22;8962;52.538;13.266;2023-03-14T11:05:15;14.30;99.90
17687;DHT22;8962;52.538;13.266;2023-03-14T11:07:46;14.20;99.90
17687;DHT22;8962;52.538;13.266;2023-03-14T11:10:19;14.10;99.90
17687;DHT22;8962;52.538;13.266;2023-03-14T11:12:59;14.00;99.90
17687;DHT22;8962;52.538;13.266;2023-03-14T11:15:34;14.10;99.90
17687;DHT22;8962;52.538;13.266;2023-03-14T11:18:18;14.00;99.90
17687;DHT22;8962;52.538;13.266;2023-03-14T11:20:55;14.00;99.90
17687;DHT22;8962;52.538;13.266;2023-03-14T11:23:30;13.90;99.90
17687;DHT22;8962;52.538;13.266;2023-03-14T11:26:06;14.00;99.90
17687;DHT22;8962;52.538;13.266;2023-03-14T11:28:38;14.00;99.90
17687;DHT22;8962;52.538;13.266;2023-03-14T11:31:14;14.10;99.90
17687;DHT22;8962;52.538;13.266;2023-03-14T11:33:47;14.10;99.90
17687;DHT22;8962;52.538;13.266;2023-03-14T11:36:22;14.10;99.90
17687;DHT22;8962;52.538;13.266;2023-03-14T11:38:52;14.20;99.90
17687;DHT22;8962;52.538;13.266;2023-03-14T11:41:24;14.30;99.90
17687;DHT22;8962;52.538;13.266;2023-03-14T11:43:54;14.20;99.90
17687;DHT22;8962;52.538;13.266;2023-03-14T11:46:28;14.10;99.90
17687;DHT22;8962;52.538;13.266;2023-03-14T11:49:01;14.10;99.90
17687;DHT22;8962;52.538;13.266;2023-03-14T11:51:34;14.20;99.90
17687;DHT22;8962;52.538;13.266;2023-03-14T11:54:12;14.30;99.90
17687;DHT22;8962;52.538;13.266;2023-03-14T11:56:46;14.50;99.90
17687;DHT22;8962;52.538;13.266;2023-03-14T11:59:17;14.30;99.90
17687;DHT22;8962;52.538;13.266;2023-03-14T12:01:53;14.40;99.90
17687;DHT22;8962;52.538;13.266;2023-03-14T12:04:34;14.40;99.90
17687;DHT22;8962;52.538;13.266;2023-03-14T12:07:15;14.50;99.90
17687;DHT22;8962;52.538;13.266;2023-03-14T12:09:43;14.80;99.90
17687;DHT22;8962;52.538;13.266;2023-03-14T12:12:13;14.90;99.90
17687;DHT22;8962;52.538;13.266;2023-03-14T12:14:46;14.80;99.90
17687;DHT22;8962;52.538;13.266;2023-03-14T12:17:20;14.80;99.90
17687;DHT22;8962;52.538;13.266;2023-03-14T12:19:50;14.70;99.90
17687;DHT22;8962;52.538;13.266;2023-03-14T12:22:29;14.60;99.90
17687;DHT22;8962;52.538;13.266;2023-03-14T12:25:00;14.80;99.90
17687;DHT22;8962;52.538;13.266;2023-03-14T12:28:02;15.20;99.90
17687;DHT22;8962;52.538;13.266;2023-03-14T12:30:32;15.30;99.90
17687;DHT22;8962;52.538;13.266;2023-03-14T12:33:30;15.50;99.90
17687;DHT22;8962;52.538;13.266;2023-03-14T12:36:00;15.50;99.90
17687;DHT22;8962;52.538;13.266;2023-03-14T12:38:42;15.50;99.90
17687;DHT22;8962;52.538;13.266;2023-03-14T12:41:15;15.30;99.90
17687;DHT22;8962;52.538;13.266;2023-03-14T12:43:44;15.10;99.90
17687;DHT22;8962;52.538;13.266;2023-03-14T12:46:24;14.90;99.90
17687;DHT22;8962;52.538;13.266;2023-03-14T12:48:56;14.90;99.90
17687;DHT22;8962;52.538;13.266;2023-03-14T12:51:34;14.80;99.90
17687;DHT22;8962;52.538;13.266;2023-03-14T12:54:31;14.70;99.90
17687;DHT22;8962;52.538;13.266;2023-03-14T12:57:15;14.50;99.90
17687;DHT22;8962;52.538;13.266;2023-03-14T12:59:51;14.70;99.90
17687;DHT22;8962;52.538;13.266;2023-03-14T13:02:24;15.90;99.90
17687;DHT22;8962;52.538;13.266;2023-03-14T13:04:59;16.30;99.90
17687;DHT22;8962;52.538;13.266;2023-03-14T13:08:02;16.70;99.90
17687;DHT22;8962;52.538;13.266;2023-03-14T13:10:39;16.80;99.90
17687;DHT22;8962;52.538;13.266;2023-03-14T13:13:20;17.10;99.90
17687;DHT22;8962;52.538;13.266;2023-03-14T13:15:49;16.30;99.90
17687;DHT22;8962;52.538;13.266;2023-03-14T13:18:27;15.60;99.90
17687;DHT22;8962;52.538;13.266;2023-03-14T13:21:01;15.30;99.90
17687;DHT22;8962;52.538;13.266;2023-03-14T13:23:33;14.90;99.90
17687;DHT22;8962;52.538;13.266;2023-03-14T13:26:09;15.60;99.90
17687;DHT22;8962;52.538;13.266;2023-03-14T13:28:38;17.70;99.90
17687;DHT22;8962;52.538;13.266;2023-03-14T13:31:05;19.90;99.90
17687;DHT22;8962;52.538;13.266;2023-03-14T13:33:33;21.70;99.90
17687;DHT22;8962;52.538;13.266;2023-03-14T13:36:02;22.70;99.90
17687;DHT22;8962;52.538;13.266;2023-03-14T13:38:34;22.50;99.90
17687;DHT22;8962;52.538;13.266;2023-03-14T13:41:06;20.80;99.90
17687;DHT22;8962;52.538;13.266;2023-03-14T13:43:36;19.90;99.90
17687;DHT22;8962;52.538;13.266;2023-03-14T13:46:11;19.20;99.90
17687;DHT22;8962;52.538;13.266;2023-03-14T13:48:43;19.40;99.90
17687;DHT22;8962;52.538;13.266;2023-03-14T13:51:13;19.00;99.90
17687;DHT22;8962;52.538;13.266;2023-03-14T13:53:46;18.50;99.90
17687;DHT22;8962;52.538;13.266;2023-03-14T13:56:21;19.50;99.90
17687;DHT22;8962;52.538;13.266;2023-03-14T13:58:49;18.90;99.90
17687;DHT22;8962;52.538;13.266;2023-03-14T14:01:18;18.90;99.90
17687;DHT22;8962;52.538;13.266;2023-03-14T14:03:50;18.10;99.90
17687;DHT22;8962;52.538;13.266;2023-03-14T14:06:25;17.70;99.90
17687;DHT22;8962;52.538;13.266;2023-03-14T14:08:53;18.20;99.90
17687;DHT22;8962;52.538;13.266;2023-03-14T14:11:32;18.90;99.90
17687;DHT22;8962;52.538;13.266;2023-03-14T14:14:05;19.70;99.90
17687;DHT22;8962;52.538;13.266;2023-03-14T14:16:32;21.50;99.90
17687;DHT22;8962;52.538;13.266;2023-03-14T14:19:00;20.90;99.90
17687;DHT22;8962;52.538;13.266;2023-03-14T14:21:29;20.00;99.90
17687;DHT22;8962;52.538;13.266;2023-03-14T14:23:59;18.40;99.90
17687;DHT22;8962;52.538;13.266;2023-03-14T14:26:28;17.50;99.90
17687;DHT22;8962;52.538;13.266;2023-03-14T14:29:02;16.90;99.90
17687;DHT22;8962;52.538;13.266;2023-03-14T14:31:29;16.40;99.90
17687;DHT22;8962;52.538;13.266;2023-03-14T14:33:57;16.00;99.90
17687;DHT22;8962;52.538;13.266;2023-03-14T14:36:28;15.80;99.90
17687;DHT22;8962;52.538;13.266;2023-03-14T14:39:00;15.50;99.90
17687;DHT22;8962;52.538;13.266;2023-03-14T14:41:33;15.40;99.90
17687;DHT22;8962;52.538;13.266;2023-03-14T14:44:03;15.10;99.90
17687;DHT22;8962;52.538;13.266;2023-03-14T14:46:33;15.00;99.90
17687;DHT22;8962;52.538;13.266;2023-03-14T14:49:08;14.80;99.90
17687;DHT22;8962;52.538;13.266;2023-03-14T14:51:41;14.70;99.90
17687;DHT22;8962;52.538;13.266;2023-03-14T14:54:14;14.00;99.90
17687;DHT22;8962;52.538;13.266;2023-03-14T14:56:50;13.60;99.90
17687;DHT22;8962;52.538;13.266;2023-03-14T14:59:24;13.40;99.90
17687;DHT22;8962;52.538;13.266;2023-03-14T15:01:56;13.30;99.90
17687;DHT22;8962;52.538;13.266;2023-03-14T15:04:25;13.10;99.90
17687;DHT22;8962;52.538;13.266;2023-03-14T15:06:52;13.10;99.90
17687;DHT22;8962;52.538;13.266;2023-03-14T15:09:20;13.10;99.90
17687;DHT22;8962;52.538;13.266;2023-03-14T15:11:49;12.60;99.90
17687;DHT22;8962;52.538;13.266;2023-03-14T15:14:19;9.30;98.60
17687;DHT22;8962;52.538;13.266;2023-03-14T15:19:20;6.90;99.90
17687;DHT22;8962;52.538;13.266;2023-03-14T15:21:49;6.50;99.90
17687;DHT22;8962;52.538;13.266;2023-03-14T15:24:17;6.40;99.90
17687;DHT22;8962;52.538;13.266;2023-03-14T15:26:44;6.20;99.90
17687;DHT22;8962;52.538;13.266;2023-03-14T15:29:13;6.00;99.90
17687;DHT22;8962;52.538;13.266;2023-03-14T15:31:41;6.00;99.90
17687;DHT22;8962;52.538;13.266;2023-03-14T15:34:09;5.90;99.90
17687;DHT22;8962;52.538;13.266;2023-03-14T15:36:38;5.70;99.90
17687;DHT22;8962;52.538;13.266;2023-03-14T15:39:06;5.50;99.90
17687;DHT22;8962;52.538;13.266;2023-03-14T15:41:34;5.40;99.90
17687;DHT22;8962;52.538;13.266;2023-03-14T15:44:03;5.10;99.90
17687;DHT22;8962;52.538;13.266;2023-03-14T15:46:31;4.90;99.90
17687;DHT22;8962;52.538;13.266;2023-03-14T15:48:59;4.80;99.90
17687;DHT22;8962;52.538;13.266;2023-03-14T15:51:26;4.60;99.90
17687;DHT22;8962;52.538;13.266;2023-03-14T15:53:55;4.50;99.90
17687;DHT22;8962;52.538;13.266;2023-03-14T15:56:22;4.40;99.90
17687;DHT22;8962;52.538;13.266;2023-03-14T15:58:52;4.20;99.90
17687;DHT22;8962;52.538;13.266;2023-03-14T16:01:22;4.00;99.90
17687;DHT22;8962;52.538;13.266;2023-03-14T16:03:50;3.80;99.90
17687;DHT22;8962;52.538;13.266;2023-03-14T16:06:18;3.60;99.90
17687;DHT22;8962;52.538;13.266;2023-03-14T16:08:45;3.60;99.90